This is the latest recevied weather packets stored in our database for station/object JH4GLG-13. If no packets are shown the sender has not sent any weather packets the latest 10 day(s).
| Time | Temp. | Humidity | Pressure | Rain* | Wind** | Luminosity | Snow |
|---|---|---|---|---|---|---|---|
| 1777880477 | 18.33° C | 55% | 1012.3 hPa | 0 mm | - | - | - |
| 1777879582 | 18.33° C | 54% | 1011.9 hPa | 0 mm | - | - | - |
| 1777879578 | 18.33° C | 54% | 1012 hPa | 0 mm | - | - | - |
| 1777878676 | 18.89° C | 54% | 1011.6 hPa | 0 mm | - | - | - |
| 1777877781 | 20° C | 51% | 1011.3 hPa | 0 mm | - | - | - |
| 1777877777 | 20° C | 51% | 1011.4 hPa | 0 mm | - | - | - |
| 1777876876 | 20° C | 49% | 1011.1 hPa | 0 mm | - | - | - |
| 1777875977 | 20.56° C | 48% | 1010.7 hPa | 0 mm | - | - | - |
| 1777875076 | 21.11° C | 45% | 1010.4 hPa | 0 mm | - | - | - |
| 1777874180 | 21.11° C | 44% | 1009.9 hPa | 0 mm | - | - | - |
| 1777873276 | 21.11° C | 42% | 1009.6 hPa | 0 mm | - | - | - |
| 1777872381 | 21.11° C | 41% | 1009.3 hPa | 0 mm | - | - | - |
| 1777872377 | 21.11° C | 41% | 1009.4 hPa | 0 mm | - | - | - |
| 1777871476 | 21.11° C | 44% | 1009.4 hPa | 0 mm | - | - | - |
| 1777870581 | 21.67° C | 42% | 1008.9 hPa | 0 mm | - | - | - |
| 1777870577 | 21.67° C | 42% | 1008.8 hPa | 0 mm | - | - | - |
| 1777869676 | 22.22° C | 42% | 1008.3 hPa | 0 mm | - | - | - |
| 1777868776 | 21.67° C | 42% | 1008.4 hPa | 0 mm | - | - | - |
| 1777867875 | 21.67° C | 45% | 1008.2 hPa | 0 mm | - | - | - |
| 1777866976 | 20.56° C | 50% | 1008.2 hPa | 0 mm | - | - | - |
| 1777866075 | 19.44° C | 63% | 1007.8 hPa | 0 mm | - | - | - |
| 1777865176 | 19.44° C | 62% | 1007.7 hPa | 0 mm | - | - | - |
| 1777864275 | 19.44° C | 61% | 1008 hPa | 0 mm | - | - | - |
| 1777863376 | 19.44° C | 60% | 1007.8 hPa | 0 mm | - | - | - |
| 1777862474 | 20° C | 60% | 1007.4 hPa | 0 mm | - | - | - |
* Rain latest hour (hover to see other rain measurements)
** Current wind speed in m/s (hover to see current wind gust speed)